Time;durP1;ratioP1;P1;durP2;ratioP2;P2;SDS_P1;SDS_P2;PMS_P1;PMS_P2;Temp;Humidity;BMP_temperature;BMP_pressure;BME280_temperature;BME280_humidity;BME280_pressure;Samples;Min_cycle;Max_cycle;Signal;HPM_P1;HPM_P2
2020/12/17 00:01:12;;;;;;;12.32;10.27;;;;;;;8.61;93.22;101266.16;5028963;28;20141;-75
2020/12/17 00:03:37;;;;;;;12.88;10.48;;;;;;;8.58;93.35;101266.41;5026804;28;20109;-85
2020/12/17 00:06:03;;;;;;;10.80;9.70;;;;;;;8.57;92.88;101264.72;5024701;28;20148;-75
2020/12/17 00:08:28;;;;;;;11.52;10.32;;;;;;;8.58;93.19;101264.59;5037239;28;20115;-75
2020/12/17 00:10:54;;;;;;;14.02;10.48;;;;;;;8.51;93.71;101257.25;5039652;28;20520;-75
2020/12/17 00:13:20;;;;;;;11.98;9.88;;;;;;;8.57;93.44;101265.56;5024591;28;20033;-76
2020/12/17 00:15:45;;;;;;;11.60;9.98;;;;;;;8.54;93.32;101263.16;5027145;28;20077;-75
2020/12/17 00:18:11;;;;;;;11.13;9.85;;;;;;;8.53;93.71;101268.63;5008169;28;20076;-75
2020/12/17 00:20:36;;;;;;;13.85;10.75;;;;;;;8.48;94.22;101265.50;5032706;28;20108;-75
2020/12/17 00:23:02;;;;;;;13.02;10.77;;;;;;;8.43;94.08;101263.19;5034195;28;20120;-75
2020/12/17 00:25:27;;;;;;;12.15;10.85;;;;;;;8.48;94.69;101266.34;5038633;28;20128;-75
2020/12/17 00:27:53;;;;;;;13.32;10.32;;;;;;;8.50;94.62;101264.38;5028335;28;20158;-74
2020/12/17 00:30:18;;;;;;;14.73;10.57;;;;;;;8.52;93.66;101265.09;5036853;28;20530;-75
2020/12/17 00:32:45;;;;;;;10.48;9.38;;;;;;;8.55;94.07;101267.50;5027240;28;20124;-75
2020/12/17 00:35:10;;;;;;;10.57;9.50;;;;;;;8.43;93.78;101245.41;5031493;28;20049;-75
2020/12/17 00:37:36;;;;;;;11.25;10.02;;;;;;;8.40;94.26;101260.78;5008312;28;20073;-76
2020/12/17 00:40:06;;;;;;;14.95;10.52;;;;;;;7.97;93.73;101185.47;4995717;28;20029;-75
2020/12/17 00:42:32;;;;;;;11.45;10.00;;;;;;;8.47;94.20;101259.31;5026750;28;20541;-75
2020/12/17 00:44:57;;;;;;;10.18;9.15;;;;;;;8.48;94.36;101261.03;5025352;28;20121;-75
2020/12/17 00:47:28;;;;;;;11.75;10.00;;;;;;;8.45;93.96;101255.06;5004581;28;20076;-75
2020/12/17 00:49:53;;;;;;;14.32;10.32;;;;;;;8.49;94.37;101256.53;5029861;28;20065;-75
2020/12/17 00:52:22;;;;;;;13.38;10.90;;;;;;;8.43;94.34;101248.06;5023026;28;20583;-75
2020/12/17 00:54:47;;;;;;;14.68;9.40;;;;;;;8.28;94.35;101228.94;5025045;28;20037;-76
2020/12/17 01:04:34;;;;;;;12.98;10.57;;;;;;;8.48;94.36;101254.84;5020021;28;20055;-76
2020/12/17 01:07:00;;;;;;;12.15;10.18;;;;;;;8.48;94.14;101254.84;5005024;28;20112;-74
2020/12/17 01:09:25;;;;;;;11.70;10.50;;;;;;;8.50;93.84;101255.56;5009301;28;20626;-74
2020/12/17 01:11:51;;;;;;;11.60;10.40;;;;;;;8.40;94.31;101247.50;5026883;28;20557;-75
2020/12/17 01:14:16;;;;;;;12.05;10.68;;;;;;;8.49;94.11;101265.34;5010208;28;20128;-76
2020/12/17 01:16:49;;;;;;;11.38;9.95;;;;;;;8.36;94.31;101233.63;5019128;28;20116;-75
2020/12/17 01:19:14;;;;;;;10.95;9.85;;;;;;;8.51;93.56;101257.25;5030621;28;20045;-76
2020/12/17 01:21:40;;;;;;;12.15;10.52;;;;;;;8.43;94.19;101261.38;4990660;28;20124;-76
2020/12/17 01:24:05;;;;;;;10.60;9.55;;;;;;;8.47;94.23;101256.66;4991471;28;20124;-76
2020/12/17 01:26:31;;;;;;;11.30;9.50;;;;;;;8.45;94.57;101260.41;4998150;28;20105;-75
2020/12/17 01:28:56;;;;;;;11.18;9.93;;;;;;;8.47;94.36;101261.13;4998001;28;20121;-77
2020/12/17 01:31:22;;;;;;;12.35;10.50;;;;;;;8.45;94.22;101253.28;5014185;28;20125;-76
2020/12/17 01:33:47;;;;;;;12.27;9.73;;;;;;;8.45;94.74;101255.06;5002511;28;20120;-76
2020/12/17 01:36:13;;;;;;;10.57;9.48;;;;;;;8.35;94.51;101237.25;5024295;28;20121;-76
2020/12/17 01:38:39;;;;;;;12.07;10.13;;;;;;;8.48;94.61;101258.38;5024117;28;20125;-73
2020/12/17 01:41:05;;;;;;;11.68;9.60;;;;;;;8.41;94.06;101244.69;4998341;28;20064;-76
2020/12/17 01:43:44;;;;;;;11.30;10.15;;;;;;;8.52;93.99;101261.63;5011200;28;20717;-76
2020/12/17 01:46:10;;;;;;;10.88;9.77;;;;;;;8.49;94.36;101267.19;5022590;28;20053;-76
2020/12/17 01:48:35;;;;;;;11.20;9.90;;;;;;;8.50;94.55;101263.56;4985767;28;20454;-78
2020/12/17 01:51:01;;;;;;;10.88;9.77;;;;;;;8.53;94.18;101261.47;5006853;28;20061;-77
2020/12/17 01:53:27;;;;;;;10.98;9.50;;;;;;;8.54;94.36;101257.00;5015789;28;20033;-76
2020/12/17 01:55:56;;;;;;;10.63;9.02;;;;;;;8.06;94.16;101176.72;5006923;28;20117;-81
2020/12/17 01:58:23;;;;;;;10.65;9.45;;;;;;;8.62;93.79;101264.34;4985083;28;20033;-77
2020/12/17 02:00:53;;;;;;;10.65;9.55;;;;;;;8.63;93.82;101263.34;5012195;28;20088;-76
2020/12/17 02:03:19;;;;;;;10.40;9.27;;;;;;;8.47;93.97;101235.38;5008924;28;20300;-76
2020/12/17 02:05:44;;;;;;;12.00;9.40;;;;;;;8.59;94.09;101254.78;4998911;28;20124;-76
2020/12/17 02:08:10;;;;;;;11.65;9.55;;;;;;;8.55;94.55;101261.34;4990695;28;20143;-76
2020/12/17 02:10:35;;;;;;;12.95;10.10;;;;;;;8.49;94.87;101265.34;4980500;28;20044;-76
2020/12/17 02:13:01;;;;;;;11.00;9.90;;;;;;;8.51;94.32;101265.25;5002416;28;20120;-75
2020/12/17 02:15:26;;;;;;;12.18;9.13;;;;;;;8.48;94.96;101258.38;5014525;28;20037;-75
2020/12/17 02:17:52;;;;;;;11.60;9.32;;;;;;;8.53;94.77;101248.16;4990910;28;20128;-75
2020/12/17 02:20:17;;;;;;;11.30;9.98;;;;;;;8.54;94.63;101254.34;4992139;28;20030;-74
2020/12/17 02:22:43;;;;;;;10.93;9.70;;;;;;;8.48;94.77;101250.41;4973335;28;20034;-74
2020/12/17 02:25:13;;;;;;;11.60;10.20;;;;;;;8.44;94.97;101251.59;4973706;28;20127;-75
2020/12/17 02:27:39;;;;;;;15.43;10.02;;;;;;;8.45;94.81;101250.63;5003953;28;20030;-74
2020/12/17 02:30:05;;;;;;;12.48;10.43;;;;;;;8.37;95.24;101237.09;4975597;28;20396;-75
2020/12/17 02:32:31;;;;;;;10.90;9.73;;;;;;;8.06;95.40;101184.69;5010049;28;20048;-74
2020/12/17 02:34:57;;;;;;;14.23;9.82;;;;;;;8.50;94.96;101252.91;4997402;28;20041;-74
2020/12/17 02:37:22;;;;;;;11.80;10.02;;;;;;;8.42;95.47;101248.22;5025478;28;20491;-74
2020/12/17 02:39:48;;;;;;;14.90;10.07;;;;;;;8.39;95.90;101256.44;5018393;28;20120;-75
2020/12/17 02:42:13;;;;;;;11.82;10.55;;;;;;;8.40;95.61;101253.66;5003030;28;20145;-74
2020/12/17 02:44:39;;;;;;;14.23;10.68;;;;;;;8.38;95.52;101239.66;4999571;28;20452;-74
2020/12/17 02:47:04;;;;;;;13.98;10.13;;;;;;;8.48;95.40;101250.41;4982889;28;20072;-75
2020/12/17 02:49:30;;;;;;;11.98;10.35;;;;;;;8.44;95.52;101248.94;5000585;28;20129;-74
2020/12/17 02:51:55;;;;;;;10.70;9.68;;;;;;;8.49;95.60;101252.06;5006727;28;20116;-74
2020/12/17 02:54:21;;;;;;;15.00;10.30;;;;;;;8.33;95.91;101225.06;5007921;28;20124;-74
2020/12/17 02:56:47;;;;;;;11.60;10.35;;;;;;;8.41;96.02;101250.00;5009300;28;20041;-74
2020/12/17 02:59:12;;;;;;;14.13;11.52;;;;;;;8.36;96.61;101256.69;5026804;28;20144;-74
2020/12/17 03:01:38;;;;;;;13.82;11.02;;;;;;;8.46;95.81;101257.63;5008993;28;20076;-75
2020/12/17 03:04:03;;;;;;;13.73;11.13;;;;;;;8.45;96.47;101250.63;5024806;28;20132;-75
2020/12/17 03:06:29;;;;;;;12.90;10.70;;;;;;;8.45;96.44;101255.06;5009757;28;20485;-75
2020/12/17 03:08:55;;;;;;;11.95;10.07;;;;;;;8.47;96.16;101248.69;5017285;28;20128;-74
2020/12/17 03:11:20;;;;;;;13.02;10.65;;;;;;;8.48;96.09;101245.06;5014822;28;20131;-74
2020/12/17 03:13:46;;;;;;;11.93;10.68;;;;;;;8.45;96.50;101253.28;5027047;28;20112;-74
2020/12/17 03:16:11;;;;;;;13.07;11.20;;;;;;;8.41;96.88;101251.84;5008730;28;20132;-75
2020/12/17 03:18:37;;;;;;;13.35;11.82;;;;;;;8.15;97.02;101212.31;5025794;28;20137;-74
2020/12/17 03:21:02;;;;;;;15.32;12.05;;;;;;;8.41;96.94;101250.00;5006999;28;20124;-74
2020/12/17 03:23:28;;;;;;;17.42;12.73;;;;;;;8.39;97.13;101257.28;4987865;28;20148;-75
2020/12/17 03:25:53;;;;;;;15.77;12.32;;;;;;;8.37;98.27;101251.25;5010504;28;20124;-74
2020/12/17 03:28:19;;;;;;;17.08;12.60;;;;;;;8.37;97.63;101256.56;5029929;28;20484;-74
2020/12/17 03:30:44;;;;;;;20.15;13.82;;;;;;;8.26;98.14;101246.00;5008323;28;20077;-74
2020/12/17 03:33:10;;;;;;;20.45;15.32;;;;;;;7.84;98.19;101176.81;5002378;28;20128;-74
2020/12/17 03:35:35;;;;;;;18.35;14.73;;;;;;;8.32;98.63;101256.09;5021685;28;20124;-75
2020/12/17 03:38:01;;;;;;;17.55;15.75;;;;;;;8.26;99.37;101262.78;4988651;28;20249;-74
2020/12/17 03:40:26;;;;;;;20.17;15.20;;;;;;;8.09;99.20;101231.44;4989495;28;20124;-75
2020/12/17 03:42:52;;;;;;;23.17;16.75;;;;;;;8.23;99.56;101263.03;4988696;28;20153;-74
2020/12/17 03:45:18;;;;;;;23.80;18.17;;;;;;;8.22;99.46;101263.16;4988367;28;20105;-74
2020/12/17 03:47:43;;;;;;;21.33;17.55;;;;;;;8.21;99.81;101270.28;5002351;28;20088;-75
2020/12/17 03:50:09;;;;;;;22.73;17.88;;;;;;;8.14;100.00;101255.00;4991314;28;20133;-75
2020/12/17 03:52:34;;;;;;;27.10;18.77;;;;;;;8.22;100.00;101265.81;4979402;28;20506;-75
2020/12/17 03:55:00;;;;;;;28.25;19.88;;;;;;;8.19;100.00;101274.91;4984026;28;20046;-74
2020/12/17 03:57:25;;;;;;;25.55;19.90;;;;;;;7.99;100.00;101243.81;4986986;28;20150;-75
2020/12/17 03:59:51;;;;;;;29.35;21.88;;;;;;;8.20;100.00;101287.22;4974259;28;20124;-75
2020/12/17 04:02:16;;;;;;;25.88;20.67;;;;;;;8.19;100.00;101292.66;4985914;28;20125;-75
2020/12/17 04:04:42;;;;;;;33.20;23.13;;;;;;;8.07;100.00;101279.41;4967283;28;20129;-76
2020/12/17 04:07:08;;;;;;;32.20;23.15;;;;;;;8.15;100.00;101294.72;4970475;28;20133;-75
2020/12/17 04:09:33;;;;;;;26.05;21.48;;;;;;;8.18;100.00;101294.50;4995172;28;20113;-75
2020/12/17 04:11:59;;;;;;;32.63;22.63;;;;;;;8.18;100.00;101302.47;4977721;28;20113;-75
2020/12/17 04:14:24;;;;;;;32.80;24.25;;;;;;;8.17;100.00;101298.13;4968509;28;20122;-75
2020/12/17 04:16:50;;;;;;;34.30;26.42;;;;;;;8.14;100.00;101298.38;4983262;28;20070;-76
2020/12/17 04:19:16;;;;;;;35.92;26.02;;;;;;;8.14;100.00;101298.38;4967338;28;20043;-75
2020/12/17 04:21:41;;;;;;;36.80;26.38;;;;;;;8.11;100.00;101293.28;4973931;28;20126;-75
2020/12/17 04:24:07;;;;;;;39.13;27.17;;;;;;;8.04;100.00;101279.66;4984656;28;20129;-75
2020/12/17 04:26:32;;;;;;;38.38;28.02;;;;;;;8.13;100.00;101291.34;4957458;28;20107;-75
2020/12/17 04:29:01;;;;;;;34.80;27.73;;;;;;;8.09;100.00;101293.44;4981173;28;20133;-75
2020/12/17 04:31:28;;;;;;;38.60;27.85;;;;;;;8.00;100.00;101280.91;4942461;28;20068;-74
2020/12/17 04:33:53;;;;;;;40.88;30.25;;;;;;;8.08;100.00;101294.41;4977236;28;20044;-75
2020/12/17 04:36:19;;;;;;;39.75;29.20;;;;;;;7.91;100.00;101263.88;4983266;28;20133;-75
2020/12/17 04:38:44;;;;;;;44.40;30.17;;;;;;;8.07;100.00;101298.03;4961189;28;20027;-76
2020/12/17 04:41:10;;;;;;;43.45;29.40;;;;;;;7.96;100.00;101280.28;4985253;28;20675;-75
2020/12/17 04:43:35;;;;;;;41.10;30.33;;;;;;;8.07;100.00;101291.88;4950691;28;20530;-75
2020/12/17 04:46:04;;;;;;;41.25;28.90;;;;;;;8.06;100.00;101299.00;4984334;28;20527;-75
2020/12/17 04:48:29;;;;;;;42.53;29.33;;;;;;;7.93;100.00;101285.88;4987753;28;20161;-76
2020/12/17 04:50:55;;;;;;;42.95;30.15;;;;;;;8.04;100.00;101292.13;4952419;28;20046;-76
2020/12/17 04:53:20;;;;;;;46.75;31.58;;;;;;;8.03;100.00;101306.38;4981163;28;20294;-75
2020/12/17 04:55:47;;;;;;;43.65;30.23;;;;;;;7.87;100.00;101285.53;4984077;28;20438;-75
2020/12/17 04:58:13;;;;;;;45.53;31.13;;;;;;;8.01;100.00;101317.13;4983298;28;20672;-78
2020/12/17 05:00:39;;;;;;;48.50;30.60;;;;;;;7.77;100.00;101280.09;4966223;28;20125;-75
2020/12/17 05:03:05;;;;;;;44.83;31.63;;;;;;;8.00;100.00;101319.91;4964001;28;20074;-75
2020/12/17 05:05:30;;;;;;;47.63;32.45;;;;;;;8.00;100.00;101315.44;4958917;28;20048;-76
2020/12/17 05:07:56;;;;;;;48.20;31.95;;;;;;;8.00;100.00;101322.56;4969119;28;20034;-75
2020/12/17 05:10:21;;;;;;;44.15;31.10;;;;;;;7.99;100.00;101316.41;4952755;28;20162;-75
2020/12/17 05:12:47;;;;;;;48.75;31.27;;;;;;;7.99;100.00;101320.88;4966344;28;20037;-75
2020/12/17 05:15:13;;;;;;;48.53;32.40;;;;;;;7.97;100.00;101329.81;4965488;28;20043;-74
2020/12/17 05:17:40;;;;;;;50.80;32.95;;;;;;;7.98;100.00;101333.34;4974851;28;20039;-75
2020/12/17 05:20:06;;;;;;;49.50;32.38;;;;;;;7.97;100.00;101332.47;4933915;28;20026;-75
2020/12/17 05:22:32;;;;;;;54.03;34.40;;;;;;;7.96;100.00;101336.09;4971455;28;20382;-75
2020/12/17 05:24:58;;;;;;;51.30;33.65;;;;;;;7.97;100.00;101345.75;4950722;28;20066;-74
2020/12/17 05:27:23;;;;;;;50.95;34.03;;;;;;;7.99;100.00;101343.00;4956787;28;20039;-74
2020/12/17 05:29:49;;;;;;;46.33;34.42;;;;;;;7.97;100.00;101343.09;4966704;28;20046;-75
2020/12/17 05:32:18;;;;;;;51.47;34.50;;;;;;;7.95;100.00;101352.19;4948948;28;20045;-76
2020/12/17 05:34:43;;;;;;;52.55;34.15;;;;;;;7.96;100.00;101354.69;4949077;28;20042;-75
2020/12/17 05:37:09;;;;;;;49.50;34.40;;;;;;;7.97;100.00;101364.38;4967257;28;20054;-75
2020/12/17 05:39:41;;;;;;;51.13;35.55;;;;;;;7.77;100.00;101330.59;4968789;28;20033;-75
2020/12/17 05:42:07;;;;;;;46.85;32.80;;;;;;;7.95;100.00;101366.28;4969138;28;20055;-75
2020/12/17 05:44:32;;;;;;;49.08;34.85;;;;;;;7.94;100.00;101367.25;4945888;28;20127;-74
2020/12/17 05:46:58;;;;;;;49.67;36.03;;;;;;;7.93;100.00;101370.91;4972460;28;20917;-74
2020/12/17 05:49:28;;;;;;;49.70;35.70;;;;;;;7.96;100.00;101377.78;4966181;28;20807;-74
2020/12/17 05:52:09;;;;;;;52.42;36.03;;;;;;;7.95;100.00;101379.59;4979541;28;20039;-74
2020/12/17 05:54:35;;;;;;;56.88;37.22;;;;;;;7.70;100.00;101354.13;4969437;28;20043;-75
2020/12/17 05:57:05;;;;;;;51.55;36.40;;;;;;;7.64;100.00;101352.81;4978770;28;20041;-76
2020/12/17 05:59:31;;;;;;;56.50;39.72;;;;;;;7.68;100.00;101364.03;4959348;28;20038;-74
2020/12/17 06:01:56;;;;;;;55.65;38.80;;;;;;;7.15;100.00;101293.78;4970155;28;20038;-75
2020/12/17 06:04:22;;;;;;;51.65;36.72;;;;;;;7.88;100.00;101412.94;4978803;28;20093;-75
2020/12/17 06:06:48;;;;;;;55.78;37.83;;;;;;;7.75;100.00;101388.31;4974823;28;20038;-76
2020/12/17 06:09:23;;;;;;;53.28;38.28;;;;;;;7.70;100.00;101383.38;4972357;28;20664;-77
2020/12/17 06:11:49;;;;;;;54.35;38.30;;;;;;;7.87;100.00;101402.44;4965961;28;20451;-74
2020/12/17 06:14:16;;;;;;;52.72;37.65;;;;;;;7.87;100.00;101411.25;4968161;28;20074;-74
2020/12/17 06:16:42;;;;;;;49.67;35.90;;;;;;;7.62;100.00;101372.47;4976722;28;20041;-74
2020/12/17 06:19:08;;;;;;;50.10;36.30;;;;;;;7.85;100.00;101413.19;4984510;28;21360;-75
2020/12/17 06:21:34;;;;;;;46.15;33.78;;;;;;;7.57;100.00;101386.13;4967246;28;20038;-75
2020/12/17 06:24:00;;;;;;;45.50;33.80;;;;;;;7.82;100.00;101422.25;4959019;28;20053;-76
2020/12/17 06:26:25;;;;;;;47.35;33.97;;;;;;;7.82;100.00;101426.69;4976438;28;20072;-74
2020/12/17 06:28:52;;;;;;;43.70;32.97;;;;;;;7.70;100.00;101409.94;4988664;28;20042;-74
2020/12/17 06:31:28;;;;;;;45.08;32.25;;;;;;;7.74;100.00;101421.16;4968484;28;20098;-74
2020/12/17 06:34:04;;;;;;;41.00;31.25;;;;;;;7.78;100.00;101433.25;4949341;28;20042;-74
2020/12/17 06:36:43;;;;;;;41.47;28.98;;;;;;;7.78;100.00;101443.88;4985996;28;20053;-75
2020/12/17 06:39:08;;;;;;;37.03;27.85;;;;;;;7.64;100.00;101418.38;4998467;28;20069;-73
2020/12/17 06:41:34;;;;;;;38.55;28.92;;;;;;;7.79;100.00;101440.25;4978242;28;20040;-73
2020/12/17 06:43:59;;;;;;;36.58;27.70;;;;;;;7.60;100.00;101422.25;4993266;28;20136;-73
2020/12/17 06:46:33;;;;;;;35.80;26.60;;;;;;;7.78;100.00;101454.50;5000484;28;20029;-74
2020/12/17 06:48:59;;;;;;;36.70;26.23;;;;;;;7.77;100.00;101455.47;5026177;28;20044;-74
2020/12/17 06:51:32;;;;;;;39.90;28.55;;;;;;;7.66;100.00;101440.34;4978306;28;20054;-74
2020/12/17 06:53:58;;;;;;;38.03;28.92;;;;;;;7.78;100.00;101457.16;4988890;28;20033;-74
2020/12/17 06:56:24;;;;;;;44.05;31.15;;;;;;;7.68;100.00;101441.09;5031071;28;20047;-74
2020/12/17 06:58:49;;;;;;;44.63;31.70;;;;;;;7.75;100.00;101450.25;5001333;28;20450;-73
2020/12/17 07:01:25;;;;;;;44.17;32.17;;;;;;;7.77;100.00;101456.28;4989070;28;20056;-73
2020/12/17 07:03:51;;;;;;;45.72;32.05;;;;;;;7.51;100.00;101415.84;4989897;28;20044;-73
2020/12/17 07:06:23;;;;;;;49.17;33.53;;;;;;;7.83;100.00;101462.94;4990648;28;20072;-73
2020/12/17 07:08:56;;;;;;;46.55;33.20;;;;;;;7.67;100.00;101439.38;5022675;28;20499;-74
2020/12/17 07:11:41;;;;;;;48.78;34.08;;;;;;;7.80;100.00;101461.38;5003185;28;20048;-73
2020/12/17 07:14:08;;;;;;;46.10;33.45;;;;;;;7.67;100.00;101444.69;5029322;28;20040;-73
2020/12/17 07:16:35;;;;;;;48.40;32.42;;;;;;;7.78;100.00;101471.28;4987595;28;20128;-73
2020/12/17 07:19:28;;;;;;;42.10;31.73;;;;;;;7.83;100.00;101478.88;4971776;28;20096;-73
2020/12/17 07:22:01;;;;;;;44.88;32.70;;;;;;;7.87;100.00;101490.13;5020902;28;20450;-74
2020/12/17 07:24:34;;;;;;;44.20;32.75;;;;;;;7.77;100.00;101474.06;5014896;28;20073;-75
2020/12/17 07:27:02;;;;;;;44.45;32.25;;;;;;;7.82;100.00;101483.38;5012271;28;20077;-74
2020/12/17 07:29:32;;;;;;;45.63;33.03;;;;;;;7.93;100.00;101500.28;4978758;28;20496;-74
2020/12/17 07:32:27;;;;;;;45.58;33.10;;;;;;;7.95;100.00;101506.31;5010933;28;20041;-74
2020/12/17 07:34:57;;;;;;;49.22;34.72;;;;;;;7.86;100.00;101497.25;4972057;28;20356;-74
2020/12/17 07:37:41;;;;;;;46.50;34.95;;;;;;;7.89;100.00;101505.00;4983436;28;20058;-74
2020/12/17 07:40:25;;;;;;;50.30;35.15;;;;;;;7.93;100.00;101509.13;5018940;28;20104;-75
2020/12/17 07:43:04;;;;;;;50.33;34.30;;;;;;;7.97;100.00;101507.88;5009293;28;20468;-74
2020/12/17 07:45:58;;;;;;;42.63;30.83;;;;;;;7.92;100.00;101491.47;4994360;28;20068;-74
2020/12/17 07:48:39;;;;;;;47.17;34.97;;;;;;;8.04;100.00;101518.06;4996331;28;20034;-74
2020/12/17 07:51:08;;;;;;;44.65;34.42;;;;;;;8.03;100.00;101514.53;5012204;28;20056;-74
2020/12/17 07:53:34;;;;;;;46.95;33.35;;;;;;;7.91;100.00;101495.09;5000232;28;20049;-74
2020/12/17 07:55:59;;;;;;;48.65;33.65;;;;;;;8.02;100.00;101518.16;4991409;28;20111;-74
2020/12/17 07:58:25;;;;;;;44.30;33.30;;;;;;;8.08;100.00;101520.34;4998091;28;20037;-75
2020/12/17 08:00:54;;;;;;;45.83;32.83;;;;;;;7.99;100.00;101506.94;4985295;28;20034;-74
2020/12/17 08:03:20;;;;;;;44.53;31.27;;;;;;;8.05;100.00;101520.56;5018065;28;20033;-75
2020/12/17 08:05:46;;;;;;;45.40;33.38;;;;;;;8.14;100.00;101526.16;4993118;28;20045;-75
2020/12/17 08:08:15;;;;;;;44.65;32.80;;;;;;;8.13;100.00;101512.00;5022979;28;20530;-74
2020/12/17 08:10:41;;;;;;;44.95;32.30;;;;;;;8.20;100.00;101536.28;4981465;28;20589;-75
2020/12/17 08:13:06;;;;;;;43.55;32.30;;;;;;;8.20;100.00;101531.84;5002266;28;20694;-75
2020/12/17 08:15:34;;;;;;;45.72;32.60;;;;;;;8.05;100.00;101509.94;4997676;28;20231;-76
2020/12/17 08:18:00;;;;;;;42.38;32.42;;;;;;;8.19;100.00;101539.91;4995450;28;20037;-75
2020/12/17 08:20:25;;;;;;;45.45;33.60;;;;;;;8.20;100.00;101546.94;5001752;28;20498;-73
2020/12/17 08:22:54;;;;;;;42.97;32.92;;;;;;;8.18;100.00;101544.41;4996965;28;20076;-73
2020/12/17 08:25:20;;;;;;;39.70;31.30;;;;;;;8.12;99.71;101526.25;5014639;28;20515;-75
2020/12/17 08:27:46;;;;;;;42.55;31.67;;;;;;;7.85;100.00;101482.28;4983316;28;20032;-74
2020/12/17 08:30:13;;;;;;;38.38;29.42;;;;;;;8.26;100.00;101549.97;5001870;28;20033;-75
2020/12/17 08:32:47;;;;;;;39.13;28.83;;;;;;;8.34;99.85;101552.00;5005513;28;20069;-75
2020/12/17 08:35:12;;;;;;;36.92;28.15;;;;;;;8.37;99.88;101564.22;4986812;28;20502;-76
2020/12/17 08:37:42;;;;;;;34.45;28.33;;;;;;;8.22;99.29;101543.19;4998542;28;20132;-76
2020/12/17 08:40:07;;;;;;;37.63;26.40;;;;;;;8.36;99.09;101568.69;4988820;28;20053;-76
2020/12/17 08:42:34;;;;;;;33.58;25.00;;;;;;;8.37;99.03;101572.19;5001743;28;20566;-76
2020/12/17 08:45:08;;;;;;;31.58;23.40;;;;;;;8.40;98.56;101571.97;4997592;28;20534;-76
2020/12/17 08:47:33;;;;;;;26.60;21.15;;;;;;;8.13;98.52;101535.94;4992086;28;22391;-76
2020/12/17 08:50:01;;;;;;;29.10;22.42;;;;;;;8.04;98.96;101529.50;4984544;28;20076;-76
2020/12/17 08:52:27;;;;;;;26.80;20.42;;;;;;;8.16;98.71;101546.34;5008158;28;20400;-76
2020/12/17 08:55:07;;;;;;;31.00;20.30;;;;;;;8.41;98.07;101578.97;5006766;28;20041;-77
2020/12/17 08:57:33;;;;;;;29.20;18.58;;;;;;;8.44;98.10;101592.03;5009515;28;20526;-76
2020/12/17 08:59:58;;;;;;;19.30;17.00;;;;;;;8.48;98.41;101593.53;5001581;28;20057;-76
2020/12/17 09:02:27;;;;;;;21.38;16.25;;;;;;;8.48;97.30;101590.88;5001908;28;20452;-76
2020/12/17 09:04:54;;;;;;;24.98;17.02;;;;;;;8.45;97.24;101587.53;5002957;28;20038;-81
2020/12/17 09:07:29;;;;;;;20.02;16.33;;;;;;;8.41;97.17;101586.94;4973142;28;20033;-76
2020/12/17 09:10:10;;;;;;;23.17;15.38;;;;;;;8.48;97.02;101595.31;5003032;28;20495;-79
2020/12/17 09:12:36;;;;;;;20.13;13.55;;;;;;;8.27;96.55;101572.94;5008336;28;20500;-77
2020/12/17 09:15:06;;;;;;;17.73;13.63;;;;;;;8.42;96.95;101609.94;4978074;28;20116;-77
2020/12/17 09:17:33;;;;;;;22.58;14.57;;;;;;;8.34;97.29;101604.38;5003265;28;20483;-77
2020/12/17 09:19:58;;;;;;;19.40;13.40;;;;;;;8.45;96.95;101619.47;5003732;28;20033;-77
2020/12/17 09:22:34;;;;;;;25.05;13.50;;;;;;;8.42;96.73;101626.72;4980079;28;20474;-77
2020/12/17 09:24:59;;;;;;;22.95;14.02;;;;;;;8.30;97.21;101608.22;5024406;28;20029;-77
2020/12/17 09:27:28;;;;;;;18.08;13.50;;;;;;;8.50;97.06;101635.97;4978118;28;20048;-77
2020/12/17 09:30:01;;;;;;;20.88;13.27;;;;;;;8.52;97.21;101632.19;5001428;28;20037;-80
2020/12/17 09:32:28;;;;;;;19.70;11.85;;;;;;;8.65;96.43;101641.88;5028791;28;20064;-76
2020/12/17 09:35:21;;;;;;;18.05;12.40;;;;;;;8.75;96.03;101640.22;5028693;28;20043;-81
2020/12/17 09:38:17;;;;;;;17.40;11.95;;;;;;;8.71;95.28;101642.25;5018133;28;20586;-77
2020/12/17 09:40:45;;;;;;;17.48;11.32;;;;;;;8.69;95.35;101648.66;5004420;28;20049;-74
2020/12/17 09:43:11;;;;;;;14.05;11.10;;;;;;;8.68;94.97;101647.81;4983828;28;20125;-80
2020/12/17 09:45:48;;;;;;;17.10;10.45;;;;;;;8.74;94.80;101641.16;5006896;28;20069;-77
2020/12/17 09:48:21;;;;;;;20.17;9.95;;;;;;;8.71;93.94;101658.22;5000616;28;20167;-77
2020/12/17 09:50:56;;;;;;;15.77;10.93;;;;;;;8.66;95.37;101654.22;4988469;28;20043;-74
2020/12/17 09:53:25;;;;;;;19.95;10.65;;;;;;;8.48;94.79;101641.41;5020969;28;20120;-78
2020/12/17 09:55:51;;;;;;;15.57;10.30;;;;;;;8.55;94.65;101661.22;4976855;28;20555;-77
2020/12/17 09:58:16;;;;;;;21.73;9.85;;;;;;;8.67;94.39;101656.78;5023451;28;20048;-77
2020/12/17 10:00:42;;;;;;;20.40;10.25;;;;;;;8.00;94.64;101557.31;5003681;28;22132;-77
2020/12/17 10:03:07;;;;;;;19.35;10.55;;;;;;;8.55;94.94;101636.47;4999739;28;20041;-77
2020/12/17 10:05:33;;;;;;;17.83;8.88;;;;;;;8.55;93.67;101636.47;4984931;28;20025;-75
2020/12/17 10:07:59;;;;;;;16.08;9.82;;;;;;;8.79;93.97;101684.22;5003126;28;20428;-78
2020/12/17 10:10:25;;;;;;;16.88;9.73;;;;;;;8.86;94.06;101674.78;4981528;28;20415;-77
2020/12/17 10:12:50;;;;;;;18.33;10.07;;;;;;;8.86;94.11;101673.94;5000278;28;20343;-78
2020/12/17 10:15:16;;;;;;;21.00;9.35;;;;;;;8.92;93.63;101680.59;4970365;28;20046;-78
2020/12/17 10:17:41;;;;;;;18.10;9.20;;;;;;;8.88;93.08;101678.19;5016017;28;20057;-79
2020/12/17 10:20:07;;;;;;;18.02;9.10;;;;;;;8.91;93.55;101689.53;5014948;28;20034;-78
2020/12/17 10:22:33;;;;;;;16.00;8.52;;;;;;;8.93;93.67;101696.44;4999411;28;20125;-78
2020/12/17 10:24:59;;;;;;;20.40;8.82;;;;;;;8.90;93.17;101699.34;5016667;28;20614;-78
2020/12/17 10:27:24;;;;;;;18.17;9.13;;;;;;;8.69;93.46;101673.44;4983641;28;20120;-78
2020/12/17 10:29:50;;;;;;;22.23;8.85;;;;;;;8.89;93.39;101695.81;5017758;28;20124;-78
2020/12/17 10:32:18;;;;;;;16.70;8.70;;;;;;;8.89;93.40;101706.47;5015408;28;20037;-78
2020/12/17 10:34:43;;;;;;;18.48;8.48;;;;;;;8.74;92.83;101683.75;5016448;28;20515;-78
2020/12/17 10:37:09;;;;;;;20.23;9.00;;;;;;;8.82;94.00;101710.59;5017605;28;20140;-77
2020/12/17 10:39:35;;;;;;;21.40;9.13;;;;;;;8.83;94.10;101706.97;5002341;28;20029;-77
2020/12/17 10:42:02;;;;;;;18.10;9.48;;;;;;;8.85;93.87;101710.38;5011117;28;20121;-77
2020/12/17 10:44:27;;;;;;;22.40;9.90;;;;;;;8.54;93.44;101678.16;4998164;28;20034;-78
2020/12/17 10:46:53;;;;;;;20.73;9.40;;;;;;;8.83;93.65;101725.59;4998874;28;20481;-77
2020/12/17 10:49:18;;;;;;;15.57;8.70;;;;;;;8.80;94.20;101723.19;5001345;28;20141;-77
2020/12/17 10:51:44;;;;;;;19.58;9.40;;;;;;;8.86;94.38;101719.19;5003714;28;20128;-77
2020/12/17 10:54:09;;;;;;;22.02;9.05;;;;;;;8.94;94.07;101719.44;5002872;28;20116;-78
2020/12/17 10:56:35;;;;;;;23.90;9.15;;;;;;;8.63;93.37;101668.63;5019990;28;20463;-78
2020/12/17 10:59:01;;;;;;;16.98;8.68;;;;;;;9.06;92.88;101720.28;4963517;28;22153;-78
2020/12/17 11:01:27;;;;;;;18.05;8.80;;;;;;;9.11;93.28;101723.44;5013046;28;20032;-77
2020/12/17 11:03:52;;;;;;;24.88;8.88;;;;;;;9.13;nan;101699.31;5003165;28;20049;-77
2020/12/17 11:06:19;;;;;;;17.80;8.50;;;;;;;9.34;92.17;101736.72;5016494;28;20135;-76
2020/12/17 11:08:44;;;;;;;19.55;8.10;;;;;;;9.34;90.94;101728.72;5004425;28;20121;-78
2020/12/17 11:11:11;;;;;;;20.25;8.07;;;;;;;9.47;90.63;101737.41;4971047;28;20057;-78
2020/12/17 11:13:36;;;;;;;19.27;8.93;;;;;;;9.52;90.41;101734.38;5012389;28;20076;-77
2020/12/17 11:16:02;;;;;;;18.40;7.82;;;;;;;9.51;91.12;101746.00;5000917;28;20475;-77
2020/12/17 11:18:27;;;;;;;17.20;8.20;;;;;;;9.48;91.24;101749.78;5003869;28;20067;-79
2020/12/17 11:20:53;;;;;;;23.63;8.38;;;;;;;9.40;91.07;101749.56;5022213;28;20112;-77
2020/12/17 11:23:18;;;;;;;21.63;8.80;;;;;;;9.42;91.40;101750.28;5020833;28;20684;-84
2020/12/17 11:25:44;;;;;;;21.60;9.32;;;;;;;9.34;92.85;101750.91;4991523;28;20168;-80